Hlavní strana
METAR-TAF:

METAR-TAF

Letiště :

Mykolajiv, Ukrajina

zeměpisná šířka: 47-03-29N, zeměpisná délka: 031-55-15E, výška: 56 m

Aktuální stav počasí

Zpráva byla vytvořena před 37 minutami, v 13:30 UTC
Západní vítr 10 kt, proměnlivý mezi západním a severozápadním
Teplota 8°C
Vlhkost vzduchu 57%
Tlak 1022 hPa
Viditelnost 10 km a více
Žádná oblačnost pod 1500 m, nevyskytují se cumulonimby.

METAR: UKON 251330Z 28005MPS 260V320 CAVOK 08/00 Q1022 NOSIG

Čas: 16:07 (14:07 UTC)

Předpověď počasí

Zpráva byla vytvořena před 30 hodinami a 4 minutami, v 08:03 UTC
Předpověď platná od 24 v 09 UTC do 24 v 18 UTC
Severozápadní vítr 12 kt s nárazy do 23 kt
Viditelnost 10 km a více
Polojasno ve výšce 2000 ft, Cumulonimbus.

TAF: UKON 240803Z 2409/2418 32006G12MPS 9999 SCT020CB TX10/2412Z TN04/2418Z

Stav a předpovědi počasí z více než 4 000 letišť (zprávy METAR a TAF).

Červené a žluté tečky na mapě představují dostupné meteorologické stanice.

Když kurzor umístíte na tečku, zobrazí se název stanice.

Pak kliknutím zobrazíte stav a předpověď počasí.

Chcete-li změnit mapu, kliknutím na zelené tlačítko se znaménkem +mapu přiblížíte, kliknutím na zelené tlačítko se znaménkem – mapu oddálíte a kliknutím na zelené šipky přejdete na sousední mapy.


METAR-TAF: